York, New York
Current Conditions -  °F | °C
As of 12:54 PM on Saturday 22 Nov 2014 (Local Time) from KROC Reporting Station
Light Rain Light Rain  
Wind Chill: 29°   Ceiling: 2200
Heat Index: 38°   Visibility: 10mi
Dew Point: 23°   Wind: 15mph
Humidity: 55%   Direction: 220°SW
Pressure: 30.03"   Gusts: NA
Location:  42.87°N, 77.89°W
Report Text: KROC 221754Z 22013KT 10SM -RA BKN022 OVC040 03/M05 A3003 RMK AO2 SLP178 4/001 P0001 60001 T00331050 10033 21033 56046
Loading
Personal Weather Stations






























Interactive Weather Map New forecast layout! Learn more

10-Day Weather Forecast

Advertisements
Track Severe Weather on mobile